sensor_id;sensor_type;location;lat;lon;timestamp;pressure;altitude;pressure_sealevel;temperature;humidity
10145;BME280;5113;41.822;23.564;2022-08-21T00:02:27;-11500.56;;;20.44;100.00
10145;BME280;5113;41.822;23.564;2022-08-21T00:05:39;-11511.56;;;20.84;100.00
10145;BME280;5113;41.822;23.564;2022-08-21T00:08:45;-11515.25;;;20.97;100.00
10145;BME280;5113;41.822;23.564;2022-08-21T00:11:52;-11500.72;;;20.44;100.00
10145;BME280;5113;41.822;23.564;2022-08-21T00:14:58;-11507.78;;;20.70;100.00
10145;BME280;5113;41.822;23.564;2022-08-21T00:18:06;-11483.78;;;19.84;100.00
10145;BME280;5113;41.822;23.564;2022-08-21T00:21:15;-11478.00;;;19.63;100.00
10145;BME280;5113;41.822;23.564;2022-08-21T00:24:22;-11480.69;;;19.72;100.00
10145;BME280;5113;41.822;23.564;2022-08-21T00:27:29;-11480.25;;;19.71;100.00
10145;BME280;5113;41.822;23.564;2022-08-21T00:30:36;-11455.03;;;18.80;100.00
10145;BME280;5113;41.822;23.564;2022-08-21T00:33:43;-11451.50;;;18.67;100.00
10145;BME280;5113;41.822;23.564;2022-08-21T00:36:51;-11468.84;;;19.30;100.00
10145;BME280;5113;41.822;23.564;2022-08-21T00:39:57;-11469.69;;;19.33;100.00
10145;BME280;5113;41.822;23.564;2022-08-21T00:43:06;-11471.53;;;19.39;100.00
10145;BME280;5113;41.822;23.564;2022-08-21T00:46:13;-11474.34;;;19.50;100.00
10145;BME280;5113;41.822;23.564;2022-08-21T00:49:20;-11460.09;;;18.98;100.00
10145;BME280;5113;41.822;23.564;2022-08-21T00:52:30;-11464.59;;;19.14;100.00
10145;BME280;5113;41.822;23.564;2022-08-21T00:55:38;-11460.94;;;19.01;100.00
10145;BME280;5113;41.822;23.564;2022-08-21T00:58:45;-11463.47;;;19.10;100.00
10145;BME280;5113;41.822;23.564;2022-08-21T01:01:56;-11450.50;;;18.64;100.00
10145;BME280;5113;41.822;23.564;2022-08-21T01:05:04;-11445.44;;;18.45;100.00
10145;BME280;5113;41.822;23.564;2022-08-21T01:08:13;-11466.44;;;19.21;100.00
10145;BME280;5113;41.822;23.564;2022-08-21T01:11:20;-11469.97;;;19.34;100.00
10145;BME280;5113;41.822;23.564;2022-08-21T01:14:26;-11472.78;;;19.44;100.00
10145;BME280;5113;41.822;23.564;2022-08-21T01:17:34;-11464.03;;;19.12;100.00
10145;BME280;5113;41.822;23.564;2022-08-21T01:20:44;-11449.81;;;18.61;100.00
10145;BME280;5113;41.822;23.564;2022-08-21T01:23:57;-11456.16;;;18.84;100.00
10145;BME280;5113;41.822;23.564;2022-08-21T01:27:04;-11456.28;;;18.85;100.00
10145;BME280;5113;41.822;23.564;2022-08-21T01:30:13;-11450.50;;;18.64;100.00
10145;BME280;5113;41.822;23.564;2022-08-21T01:33:22;-11466.00;;;19.20;100.00
10145;BME280;5113;41.822;23.564;2022-08-21T01:36:30;-11469.97;;;19.34;100.00
10145;BME280;5113;41.822;23.564;2022-08-21T01:39:39;-11458.13;;;18.91;100.00
10145;BME280;5113;41.822;23.564;2022-08-21T01:42:47;-11440.91;;;18.29;100.00
10145;BME280;5113;41.822;23.564;2022-08-21T01:45:53;-11456.72;;;18.86;100.00
10145;BME280;5113;41.822;23.564;2022-08-21T01:48:59;-11463.06;;;19.09;100.00
10145;BME280;5113;41.822;23.564;2022-08-21T01:52:06;-11450.50;;;18.64;100.00
10145;BME280;5113;41.822;23.564;2022-08-21T01:55:15;-11457.84;;;18.90;100.00
10145;BME280;5113;41.822;23.564;2022-08-21T01:58:22;-11465.03;;;19.16;100.00
10145;BME280;5113;41.822;23.564;2022-08-21T02:01:28;-11460.38;;;18.99;100.00
10145;BME280;5113;41.822;23.564;2022-08-21T02:04:35;-11463.19;;;19.09;100.00
10145;BME280;5113;41.822;23.564;2022-08-21T02:07:45;-11471.09;;;19.38;100.00
10145;BME280;5113;41.822;23.564;2022-08-21T02:10:53;-11450.78;;;18.65;100.00
10145;BME280;5113;41.822;23.564;2022-08-21T02:13:59;-11458.41;;;18.92;100.00
10145;BME280;5113;41.822;23.564;2022-08-21T02:17:06;-11461.50;;;19.03;100.00
10145;BME280;5113;41.822;23.564;2022-08-21T02:20:18;-11456.56;;;18.86;100.00
10145;BME280;5113;41.822;23.564;2022-08-21T02:23:24;-11466.31;;;19.21;100.00
10145;BME280;5113;41.822;23.564;2022-08-21T02:26:32;-11467.00;;;19.23;100.00
10145;BME280;5113;41.822;23.564;2022-08-21T02:29:39;-11462.34;;;19.06;100.00
10145;BME280;5113;41.822;23.564;2022-08-21T02:32:45;-11453.03;;;18.73;100.00
10145;BME280;5113;41.822;23.564;2022-08-21T02:35:53;-11463.47;;;19.10;100.00
10145;BME280;5113;41.822;23.564;2022-08-21T02:38:59;-11459.69;;;18.97;100.00
10145;BME280;5113;41.822;23.564;2022-08-21T02:42:07;-11468.13;;;19.27;100.00
10145;BME280;5113;41.822;23.564;2022-08-21T02:45:14;-11453.19;;;18.73;100.00
10145;BME280;5113;41.822;23.564;2022-08-21T02:48:23;-11437.81;;;18.18;100.00
10145;BME280;5113;41.822;23.564;2022-08-21T02:51:29;-11437.53;;;18.17;100.00
10145;BME280;5113;41.822;23.564;2022-08-21T02:54:36;-11453.75;;;18.75;100.00
10145;BME280;5113;41.822;23.564;2022-08-21T02:57:44;-11473.63;;;19.47;100.00
10145;BME280;5113;41.822;23.564;2022-08-21T03:00:50;-11480.25;;;19.71;100.00
10145;BME280;5113;41.822;23.564;2022-08-21T03:03:57;-11484.78;;;19.87;100.00
10145;BME280;5113;41.822;23.564;2022-08-21T03:07:04;-11484.91;;;19.88;100.00
10145;BME280;5113;41.822;23.564;2022-08-21T03:10:15;-11480.69;;;19.72;100.00
10145;BME280;5113;41.822;23.564;2022-08-21T03:13:23;-11481.25;;;19.74;100.00
10145;BME280;5113;41.822;23.564;2022-08-21T03:16:30;-11469.97;;;19.34;100.00
10145;BME280;5113;41.822;23.564;2022-08-21T03:19:38;-11467.44;;;19.25;100.00
10145;BME280;5113;41.822;23.564;2022-08-21T03:22:45;-11473.50;;;19.46;100.00
10145;BME280;5113;41.822;23.564;2022-08-21T03:25:56;-11474.75;;;19.51;100.00
10145;BME280;5113;41.822;23.564;2022-08-21T03:29:04;-11471.37;;;19.39;100.00
10145;BME280;5113;41.822;23.564;2022-08-21T03:32:12;-11460.94;;;19.01;100.00
10145;BME280;5113;41.822;23.564;2022-08-21T03:35:19;-11462.06;;;19.05;100.00
10145;BME280;5113;41.822;23.564;2022-08-21T03:38:27;-11459.13;;;18.95;100.00
10145;BME280;5113;41.822;23.564;2022-08-21T03:41:33;-11467.44;;;19.25;100.00
10145;BME280;5113;41.822;23.564;2022-08-21T03:44:41;-11474.75;;;19.51;100.00
10145;BME280;5113;41.822;23.564;2022-08-21T03:47:51;-11475.91;;;19.55;100.00
10145;BME280;5113;41.822;23.564;2022-08-21T03:50:58;-11484.22;;;19.85;100.00
10145;BME280;5113;41.822;23.564;2022-08-21T03:54:05;-11475.06;;;19.52;100.00
10145;BME280;5113;41.822;23.564;2022-08-21T03:57:11;-11464.03;;;19.12;100.00
10145;BME280;5113;41.822;23.564;2022-08-21T04:00:19;-11466.44;;;19.21;100.00
10145;BME280;5113;41.822;23.564;2022-08-21T04:03:26;-11464.47;;;19.14;100.00
10145;BME280;5113;41.822;23.564;2022-08-21T04:06:33;-11483.78;;;19.84;100.00
10145;BME280;5113;41.822;23.564;2022-08-21T04:09:41;-11479.84;;;19.69;100.00
10145;BME280;5113;41.822;23.564;2022-08-21T04:12:47;-11484.34;;;19.86;100.00
10145;BME280;5113;41.822;23.564;2022-08-21T04:15:55;-11481.25;;;19.74;100.00
10145;BME280;5113;41.822;23.564;2022-08-21T04:19:02;-11481.53;;;19.75;100.00
10145;BME280;5113;41.822;23.564;2022-08-21T04:22:09;-11482.38;;;19.78;100.00
10145;BME280;5113;41.822;23.564;2022-08-21T04:25:17;-11485.91;;;19.91;100.00
10145;BME280;5113;41.822;23.564;2022-08-21T04:28:24;-11488.44;;;20.00;100.00
10145;BME280;5113;41.822;23.564;2022-08-21T04:31:35;-11487.47;;;19.97;100.00
10145;BME280;5113;41.822;23.564;2022-08-21T04:34:42;-11487.75;;;19.98;100.00
10145;BME280;5113;41.822;23.564;2022-08-21T04:37:49;-11484.34;;;19.86;100.00
10145;BME280;5113;41.822;23.564;2022-08-21T04:40:55;-11477.44;;;19.61;100.00
10145;BME280;5113;41.822;23.564;2022-08-21T04:44:02;-11483.22;;;19.82;100.00
10145;BME280;5113;41.822;23.564;2022-08-21T04:47:10;-11484.63;;;19.87;100.00
10145;BME280;5113;41.822;23.564;2022-08-21T04:50:17;-11484.06;;;19.85;100.00
10145;BME280;5113;41.822;23.564;2022-08-21T04:53:32;-11489.44;;;20.04;100.00
10145;BME280;5113;41.822;23.564;2022-08-21T04:56:42;-11465.44;;;19.18;100.00
10145;BME280;5113;41.822;23.564;2022-08-21T04:59:51;-11478.72;;;19.65;100.00
10145;BME280;5113;41.822;23.564;2022-08-21T05:03:00;-11483.66;;;19.83;100.00
10145;BME280;5113;41.822;23.564;2022-08-21T05:06:09;-11463.75;;;19.11;100.00
10145;BME280;5113;41.822;23.564;2022-08-21T05:09:17;-11468.56;;;19.29;100.00
10145;BME280;5113;41.822;23.564;2022-08-21T05:12:24;-11465.59;;;19.18;100.00
10145;BME280;5113;41.822;23.564;2022-08-21T05:15:30;-11469.41;;;19.32;100.00
10145;BME280;5113;41.822;23.564;2022-08-21T05:18:38;-11476.75;;;19.58;100.00
10145;BME280;5113;41.822;23.564;2022-08-21T05:21:45;-11474.47;;;19.50;100.00
10145;BME280;5113;41.822;23.564;2022-08-21T05:24:53;-11468.97;;;19.30;100.00
10145;BME280;5113;41.822;23.564;2022-08-21T05:27:59;-11490.41;;;20.07;100.00
10145;BME280;5113;41.822;23.564;2022-08-21T05:31:06;-11490.84;;;20.09;100.00
10145;BME280;5113;41.822;23.564;2022-08-21T05:34:18;-11488.88;;;20.02;100.00
10145;BME280;5113;41.822;23.564;2022-08-21T05:37:25;-11493.94;;;20.20;100.00
10145;BME280;5113;41.822;23.564;2022-08-21T05:40:31;-11486.47;;;19.93;100.00
10145;BME280;5113;41.822;23.564;2022-08-21T05:43:37;-11490.41;;;20.07;100.00
10145;BME280;5113;41.822;23.564;2022-08-21T05:46:44;-11493.25;;;20.18;100.00
10145;BME280;5113;41.822;23.564;2022-08-21T05:49:51;-11491.53;;;20.11;100.00
10145;BME280;5113;41.822;23.564;2022-08-21T05:52:57;-11477.31;;;19.60;100.00
10145;BME280;5113;41.822;23.564;2022-08-21T05:56:12;-11480.53;;;19.72;100.00
10145;BME280;5113;41.822;23.564;2022-08-21T05:59:19;-11495.91;;;20.27;100.00
10145;BME280;5113;41.822;23.564;2022-08-21T06:02:25;-11490.13;;;20.06;100.00
10145;BME280;5113;41.822;23.564;2022-08-21T06:05:33;-11497.03;;;20.31;100.00
10145;BME280;5113;41.822;23.564;2022-08-21T06:08:41;-11497.31;;;20.32;100.00
10145;BME280;5113;41.822;23.564;2022-08-21T06:11:47;-11496.47;;;20.29;100.00
10145;BME280;5113;41.822;23.564;2022-08-21T06:14:54;-11508.06;;;20.71;100.00
10145;BME280;5113;41.822;23.564;2022-08-21T06:18:00;-11512.00;;;20.85;100.00
10145;BME280;5113;41.822;23.564;2022-08-21T06:21:08;-11507.34;;;20.68;100.00
10145;BME280;5113;41.822;23.564;2022-08-21T06:24:15;-11501.84;;;20.49;100.00
10145;BME280;5113;41.822;23.564;2022-08-21T06:27:21;-11495.63;;;20.26;100.00
10145;BME280;5113;41.822;23.564;2022-08-21T06:30:30;-11495.34;;;20.25;100.00
10145;BME280;5113;41.822;23.564;2022-08-21T06:33:37;-11493.38;;;20.18;100.00
10145;BME280;5113;41.822;23.564;2022-08-21T06:36:45;-11499.31;;;20.39;100.00
10145;BME280;5113;41.822;23.564;2022-08-21T06:39:51;-11495.63;;;20.26;100.00
10145;BME280;5113;41.822;23.564;2022-08-21T06:42:58;-11506.34;;;20.65;100.00
10145;BME280;5113;41.822;23.564;2022-08-21T06:46:10;-11507.50;;;20.69;100.00
10145;BME280;5113;41.822;23.564;2022-08-21T06:49:16;-11512.97;;;20.89;100.00
10145;BME280;5113;41.822;23.564;2022-08-21T06:52:26;-11521.03;;;21.18;100.00
10145;BME280;5113;41.822;23.564;2022-08-21T06:55:32;-11518.22;;;21.07;100.00
10145;BME280;5113;41.822;23.564;2022-08-21T06:58:39;-11522.72;;;21.24;100.00
10145;BME280;5113;41.822;23.564;2022-08-21T07:01:45;-11526.94;;;21.39;100.00
10145;BME280;5113;41.822;23.564;2022-08-21T07:04:51;-11527.94;;;21.42;100.00
10145;BME280;5113;41.822;23.564;2022-08-21T07:07:59;-11526.25;;;21.36;100.00
10145;BME280;5113;41.822;23.564;2022-08-21T07:11:11;-11533.72;;;21.63;100.00
10145;BME280;5113;41.822;23.564;2022-08-21T07:14:19;-11535.84;;;21.71;100.00
10145;BME280;5113;41.822;23.564;2022-08-21T07:17:25;-11534.16;;;21.65;100.00
10145;BME280;5113;41.822;23.564;2022-08-21T07:20:31;-11534.28;;;21.65;100.00
10145;BME280;5113;41.822;23.564;2022-08-21T07:23:40;-11548.81;;;22.18;100.00
10145;BME280;5113;41.822;23.564;2022-08-21T07:26:48;-11534.28;;;21.65;100.00
10145;BME280;5113;41.822;23.564;2022-08-21T07:29:54;-11541.91;;;21.93;100.00
10145;BME280;5113;41.822;23.564;2022-08-21T07:33:00;-11528.38;;;21.44;100.00
10145;BME280;5113;41.822;23.564;2022-08-21T07:36:07;-11535.84;;;21.71;100.00
10145;BME280;5113;41.822;23.564;2022-08-21T07:39:15;-11564.78;;;22.75;100.00
10145;BME280;5113;41.822;23.564;2022-08-21T07:42:22;-11555.47;;;22.42;100.00
10145;BME280;5113;41.822;23.564;2022-08-21T07:45:29;-11571.13;;;22.98;100.00
10145;BME280;5113;41.822;23.564;2022-08-21T07:48:36;-11565.06;;;22.76;100.00
10145;BME280;5113;41.822;23.564;2022-08-21T07:51:42;-11559.53;;;22.56;100.00
10145;BME280;5113;41.822;23.564;2022-08-21T07:54:50;-11555.19;;;22.40;100.00
10145;BME280;5113;41.822;23.564;2022-08-21T07:57:56;-11556.44;;;22.45;100.00
10145;BME280;5113;41.822;23.564;2022-08-21T08:01:03;-11569.28;;;22.91;100.00
10145;BME280;5113;41.822;23.564;2022-08-21T08:04:10;-11587.22;;;23.56;100.00
10145;BME280;5113;41.822;23.564;2022-08-21T08:07:17;-11589.63;;;23.64;100.00
10145;BME280;5113;41.822;23.564;2022-08-21T08:10:25;-11587.06;;;23.55;100.00
10145;BME280;5113;41.822;23.564;2022-08-21T08:13:37;-11584.25;;;23.45;100.00
10145;BME280;5113;41.822;23.564;2022-08-21T08:16:43;-11574.78;;;23.11;100.00
10145;BME280;5113;41.822;23.564;2022-08-21T08:19:50;-11587.63;;;23.57;100.00
10145;BME280;5113;41.822;23.564;2022-08-21T08:22:57;-11584.66;;;23.47;100.00
10145;BME280;5113;41.822;23.564;2022-08-21T08:26:05;-11582.28;;;23.38;100.00
10145;BME280;5113;41.822;23.564;2022-08-21T08:29:11;-11578.47;;;23.24;100.00
10145;BME280;5113;41.822;23.564;2022-08-21T08:32:18;-11590.47;;;23.67;100.00
10145;BME280;5113;41.822;23.564;2022-08-21T08:35:25;-11596.38;;;23.89;100.00
10145;BME280;5113;41.822;23.564;2022-08-21T08:38:35;-11577.75;;;23.22;100.00
10145;BME280;5113;41.822;23.564;2022-08-21T08:41:45;-11595.69;;;23.86;100.00
10145;BME280;5113;41.822;23.564;2022-08-21T08:45:04;-11602.88;;;24.12;100.00
10145;BME280;5113;41.822;23.564;2022-08-21T08:48:28;-11588.22;;;23.59;98.39
10145;BME280;5113;41.822;23.564;2022-08-21T08:51:43;-11585.94;;;23.51;97.66
10145;BME280;5113;41.822;23.564;2022-08-21T08:55:02;-11585.53;;;23.50;100.00
10145;BME280;5113;41.822;23.564;2022-08-21T08:58:13;-11586.50;;;23.53;100.00
10145;BME280;5113;41.822;23.564;2022-08-21T09:01:22;-11566.75;;;22.82;100.00
10145;BME280;5113;41.822;23.564;2022-08-21T09:04:32;-11555.19;;;22.40;100.00
10145;BME280;5113;41.822;23.564;2022-08-21T09:07:42;-11579.44;;;23.28;100.00
10145;BME280;5113;41.822;23.564;2022-08-21T09:11:02;-11559.13;;;22.55;100.00
10145;BME280;5113;41.822;23.564;2022-08-21T09:14:14;-11563.91;;;22.72;100.00
10145;BME280;5113;41.822;23.564;2022-08-21T09:17:34;-11553.47;;;22.34;100.00
10145;BME280;5113;41.822;23.564;2022-08-21T09:20:59;-11571.84;;;23.00;100.00
10145;BME280;5113;41.822;23.564;2022-08-21T09:24:22;-11543.03;;;21.97;100.00
10145;BME280;5113;41.822;23.564;2022-08-21T09:27:31;-11568.03;;;22.87;100.00
10145;BME280;5113;41.822;23.564;2022-08-21T09:30:39;-11571.41;;;22.99;100.00
10145;BME280;5113;41.822;23.564;2022-08-21T09:33:46;-11566.19;;;22.80;100.00
10145;BME280;5113;41.822;23.564;2022-08-21T09:36:53;-11582.56;;;23.39;100.00
10145;BME280;5113;41.822;23.564;2022-08-21T09:40:00;-11582.84;;;23.40;100.00
10145;BME280;5113;41.822;23.564;2022-08-21T09:43:22;-11576.06;;;23.16;100.00
10145;BME280;5113;41.822;23.564;2022-08-21T09:46:32;-11569.84;;;22.93;100.00
10145;BME280;5113;41.822;23.564;2022-08-21T09:49:40;-11567.03;;;22.83;100.00
10145;BME280;5113;41.822;23.564;2022-08-21T09:52:53;-11563.50;;;22.70;100.00
10145;BME280;5113;41.822;23.564;2022-08-21T09:56:03;-11570.13;;;22.94;100.00
10145;BME280;5113;41.822;23.564;2022-08-21T09:59:31;-11584.81;;;23.47;100.00
10145;BME280;5113;41.822;23.564;2022-08-21T10:02:42;-11600.75;;;24.04;100.00
10145;BME280;5113;41.822;23.564;2022-08-21T10:05:59;-11598.22;;;23.95;100.00
10145;BME280;5113;41.822;23.564;2022-08-21T10:09:10;-11594.00;;;23.80;100.00
10145;BME280;5113;41.822;23.564;2022-08-21T10:12:30;-11606.13;;;24.24;100.00
10145;BME280;5113;41.822;23.564;2022-08-21T10:15:47;-11591.03;;;23.69;100.00
10145;BME280;5113;41.822;23.564;2022-08-21T10:19:09;-11593.72;;;23.79;100.00
10145;BME280;5113;41.822;23.564;2022-08-21T10:22:26;-11592.56;;;23.75;100.00
10145;BME280;5113;41.822;23.564;2022-08-21T10:25:45;-11580.56;;;23.32;100.00
10145;BME280;5113;41.822;23.564;2022-08-21T10:29:21;-11585.66;;;23.50;100.00
10145;BME280;5113;41.822;23.564;2022-08-21T10:32:42;-11568.72;;;22.89;100.00
10145;BME280;5113;41.822;23.564;2022-08-21T10:35:57;-11584.38;;;23.46;100.00
10145;BME280;5113;41.822;23.564;2022-08-21T10:39:17;-11565.63;;;22.78;100.00
10145;BME280;5113;41.822;23.564;2022-08-21T10:42:48;-11564.78;;;22.75;100.00
10145;BME280;5113;41.822;23.564;2022-08-21T10:46:02;-11565.19;;;22.77;100.00
10145;BME280;5113;41.822;23.564;2022-08-21T10:49:20;-11559.97;;;22.58;100.00
10145;BME280;5113;41.822;23.564;2022-08-21T10:56:14;-11556.03;;;22.44;100.00
10145;BME280;5113;41.822;23.564;2022-08-21T10:59:25;-11558.84;;;22.54;100.00
10145;BME280;5113;41.822;23.564;2022-08-21T11:02:37;-11551.78;;;22.28;100.00
10145;BME280;5113;41.822;23.564;2022-08-21T11:05:49;-11565.91;;;22.79;100.00
10145;BME280;5113;41.822;23.564;2022-08-21T11:09:10;-11570.41;;;22.95;100.00
10145;BME280;5113;41.822;23.564;2022-08-21T11:12:24;-11567.31;;;22.84;100.00
10145;BME280;5113;41.822;23.564;2022-08-21T11:15:37;-11561.09;;;22.62;100.00
10145;BME280;5113;41.822;23.564;2022-08-21T11:18:47;-11563.06;;;22.69;100.00
10145;BME280;5113;41.822;23.564;2022-08-21T11:22:00;-11564.34;;;22.73;100.00
10145;BME280;5113;41.822;23.564;2022-08-21T11:25:14;-11567.31;;;22.84;100.00
10145;BME280;5113;41.822;23.564;2022-08-21T11:28:28;-11568.44;;;22.88;100.00
10145;BME280;5113;41.822;23.564;2022-08-21T11:31:42;-11570.28;;;22.95;100.00
10145;BME280;5113;41.822;23.564;2022-08-21T11:35:00;-11540.78;;;21.89;100.00
10145;BME280;5113;41.822;23.564;2022-08-21T11:38:20;-11538.81;;;21.82;100.00
10145;BME280;5113;41.822;23.564;2022-08-21T11:41:34;-11543.59;;;21.99;100.00
10145;BME280;5113;41.822;23.564;2022-08-21T11:44:49;-11556.59;;;22.46;100.00
10145;BME280;5113;41.822;23.564;2022-08-21T11:48:04;-11549.53;;;22.20;100.00
10145;BME280;5113;41.822;23.564;2022-08-21T11:51:17;-11574.66;;;23.11;100.00
10145;BME280;5113;41.822;23.564;2022-08-21T11:54:29;-11558.56;;;22.53;100.00
10145;BME280;5113;41.822;23.564;2022-08-21T11:57:42;-11544.59;;;22.02;100.00
10145;BME280;5113;41.822;23.564;2022-08-21T12:00:53;-11562.22;;;22.66;100.00
10145;BME280;5113;41.822;23.564;2022-08-21T12:04:03;-11569.28;;;22.91;100.00
10145;BME280;5113;41.822;23.564;2022-08-21T12:07:12;-11546.16;;;22.08;100.00
10145;BME280;5113;41.822;23.564;2022-08-21T12:10:19;-11565.91;;;22.79;100.00
10145;BME280;5113;41.822;23.564;2022-08-21T12:13:51;-11561.53;;;22.63;100.00
10145;BME280;5113;41.822;23.564;2022-08-21T12:17:04;-11554.34;;;22.37;100.00
10145;BME280;5113;41.822;23.564;2022-08-21T12:20:23;-11537.69;;;21.78;100.00
10145;BME280;5113;41.822;23.564;2022-08-21T12:23:33;-11526.81;;;21.38;100.00
10145;BME280;5113;41.822;23.564;2022-08-21T12:26:48;-11525.84;;;21.35;100.00
10145;BME280;5113;41.822;23.564;2022-08-21T12:30:00;-11548.13;;;22.15;100.00
10145;BME280;5113;41.822;23.564;2022-08-21T12:33:20;-11561.94;;;22.65;100.00
10145;BME280;5113;41.822;23.564;2022-08-21T12:36:39;-11548.13;;;22.15;100.00
10145;BME280;5113;41.822;23.564;2022-08-21T12:39:49;-11556.16;;;22.44;100.00
10145;BME280;5113;41.822;23.564;2022-08-21T12:42:59;-11545.31;;;22.05;100.00
10145;BME280;5113;41.822;23.564;2022-08-21T12:46:15;-11567.19;;;22.84;100.00
10145;BME280;5113;41.822;23.564;2022-08-21T12:49:28;-11565.91;;;22.79;100.00
10145;BME280;5113;41.822;23.564;2022-08-21T12:52:42;-11541.50;;;21.91;100.00
10145;BME280;5113;41.822;23.564;2022-08-21T12:55:50;-11537.69;;;21.78;100.00
10145;BME280;5113;41.822;23.564;2022-08-21T12:59:01;-11542.75;;;21.96;100.00
10145;BME280;5113;41.822;23.564;2022-08-21T13:02:15;-11543.75;;;21.99;100.00
10145;BME280;5113;41.822;23.564;2022-08-21T13:05:33;-11548.13;;;22.15;100.00
10145;BME280;5113;41.822;23.564;2022-08-21T13:08:42;-11533.16;;;21.61;100.00
10145;BME280;5113;41.822;23.564;2022-08-21T13:11:51;-11547.56;;;22.13;100.00
10145;BME280;5113;41.822;23.564;2022-08-21T13:15:00;-11560.41;;;22.59;100.00
10145;BME280;5113;41.822;23.564;2022-08-21T13:18:22;-11570.41;;;22.95;100.00
10145;BME280;5113;41.822;23.564;2022-08-21T13:21:32;-11560.53;;;22.60;100.00
10145;BME280;5113;41.822;23.564;2022-08-21T13:24:38;-11561.09;;;22.62;100.00
10145;BME280;5113;41.822;23.564;2022-08-21T13:27:58;-11558.69;;;22.53;100.00
10145;BME280;5113;41.822;23.564;2022-08-21T13:31:08;-11559.41;;;22.56;100.00
10145;BME280;5113;41.822;23.564;2022-08-21T13:34:18;-11561.25;;;22.62;100.00
10145;BME280;5113;41.822;23.564;2022-08-21T13:37:26;-11561.81;;;22.64;100.00
10145;BME280;5113;41.822;23.564;2022-08-21T13:40:44;-11565.34;;;22.77;100.00
10145;BME280;5113;41.822;23.564;2022-08-21T13:43:57;-11566.19;;;22.80;100.00
10145;BME280;5113;41.822;23.564;2022-08-21T13:47:05;-11562.09;;;22.65;100.00
10145;BME280;5113;41.822;23.564;2022-08-21T13:50:15;-11561.81;;;22.64;100.00
10145;BME280;5113;41.822;23.564;2022-08-21T13:53:28;-11565.19;;;22.77;100.00
10145;BME280;5113;41.822;23.564;2022-08-21T13:56:42;-11562.38;;;22.66;100.00
10145;BME280;5113;41.822;23.564;2022-08-21T13:59:50;-11572.41;;;23.02;100.00
10145;BME280;5113;41.822;23.564;2022-08-21T14:03:04;-11566.03;;;22.80;100.00
10145;BME280;5113;41.822;23.564;2022-08-21T14:06:16;-11556.31;;;22.45;100.00
10145;BME280;5113;41.822;23.564;2022-08-21T14:09:26;-11566.75;;;22.82;100.00
10145;BME280;5113;41.822;23.564;2022-08-21T14:12:38;-11573.38;;;23.06;100.00
10145;BME280;5113;41.822;23.564;2022-08-21T14:15:54;-11570.13;;;22.94;100.00
10145;BME280;5113;41.822;23.564;2022-08-21T14:19:09;-11566.19;;;22.80;100.00
10145;BME280;5113;41.822;23.564;2022-08-21T14:22:36;-11563.63;;;22.71;100.00
10145;BME280;5113;41.822;23.564;2022-08-21T14:25:44;-11561.66;;;22.64;100.00
10145;BME280;5113;41.822;23.564;2022-08-21T14:28:51;-11581.72;;;23.36;100.00
10145;BME280;5113;41.822;23.564;2022-08-21T14:31:59;-11586.50;;;23.53;100.00
10145;BME280;5113;41.822;23.564;2022-08-21T14:35:08;-11587.06;;;23.55;100.00
10145;BME280;5113;41.822;23.564;2022-08-21T14:38:19;-11574.38;;;23.10;100.00
10145;BME280;5113;41.822;23.564;2022-08-21T14:41:28;-11569.72;;;22.93;100.00
10145;BME280;5113;41.822;23.564;2022-08-21T14:44:34;-11564.22;;;22.73;100.00
10145;BME280;5113;41.822;23.564;2022-08-21T14:47:42;-11559.41;;;22.56;100.00
10145;BME280;5113;41.822;23.564;2022-08-21T14:50:48;-11572.13;;;23.01;100.00
10145;BME280;5113;41.822;23.564;2022-08-21T14:53:56;-11580.84;;;23.33;100.00
10145;BME280;5113;41.822;23.564;2022-08-21T14:57:06;-11579.31;;;23.27;100.00
10145;BME280;5113;41.822;23.564;2022-08-21T15:00:16;-11572.13;;;23.01;100.00
10145;BME280;5113;41.822;23.564;2022-08-21T15:03:23;-11577.34;;;23.20;100.00
10145;BME280;5113;41.822;23.564;2022-08-21T15:06:30;-11584.25;;;23.45;100.00
10145;BME280;5113;41.822;23.564;2022-08-21T15:09:37;-11579.44;;;23.28;100.00
10145;BME280;5113;41.822;23.564;2022-08-21T15:12:44;-11579.31;;;23.27;100.00
10145;BME280;5113;41.822;23.564;2022-08-21T15:15:50;-11585.09;;;23.48;100.00
10145;BME280;5113;41.822;23.564;2022-08-21T15:18:58;-11565.19;;;22.77;100.00
10145;BME280;5113;41.822;23.564;2022-08-21T15:22:04;-11564.91;;;22.76;100.00
10145;BME280;5113;41.822;23.564;2022-08-21T15:25:24;-11575.06;;;23.12;100.00
10145;BME280;5113;41.822;23.564;2022-08-21T15:28:30;-11576.34;;;23.17;100.00
10145;BME280;5113;41.822;23.564;2022-08-21T15:31:36;-11579.59;;;23.28;100.00
10145;BME280;5113;41.822;23.564;2022-08-21T15:34:55;-11576.91;;;23.19;100.00
10145;BME280;5113;41.822;23.564;2022-08-21T15:38:02;-11564.22;;;22.73;100.00
10145;BME280;5113;41.822;23.564;2022-08-21T15:41:17;-11576.34;;;23.17;100.00
10145;BME280;5113;41.822;23.564;2022-08-21T15:44:25;-11576.91;;;23.19;100.00
10145;BME280;5113;41.822;23.564;2022-08-21T15:47:34;-11583.69;;;23.43;100.00
10145;BME280;5113;41.822;23.564;2022-08-21T15:50:41;-11594.97;;;23.84;100.00
10145;BME280;5113;41.822;23.564;2022-08-21T15:53:47;-11599.34;;;23.99;100.00
10145;BME280;5113;41.822;23.564;2022-08-21T15:56:54;-11594.97;;;23.84;100.00
10145;BME280;5113;41.822;23.564;2022-08-21T16:00:07;-11598.38;;;23.96;100.00
10145;BME280;5113;41.822;23.564;2022-08-21T16:03:18;-11576.34;;;23.17;100.00
10145;BME280;5113;41.822;23.564;2022-08-21T16:06:27;-11581.84;;;23.36;100.00
10145;BME280;5113;41.822;23.564;2022-08-21T16:09:42;-11588.63;;;23.61;100.00
10145;BME280;5113;41.822;23.564;2022-08-21T16:12:54;-11589.75;;;23.65;100.00
10145;BME280;5113;41.822;23.564;2022-08-21T16:16:02;-11588.78;;;23.61;100.00
10145;BME280;5113;41.822;23.564;2022-08-21T16:19:10;-11580.56;;;23.32;100.00
10145;BME280;5113;41.822;23.564;2022-08-21T16:22:17;-11583.41;;;23.42;100.00
10145;BME280;5113;41.822;23.564;2022-08-21T16:25:23;-11572.41;;;23.02;100.00